메인 페이지
METAR-TAF:

METAR-TAF

공항 :

Pecos, 텍사스, 미국

위도: 31-22-56N, 경도: 103-30-38W, 고도: 796m

현재 날씨관측

예보는 40분 전, 09:55시(UTC)에 발표되었습니다.
9kt
온도 24°C
습도 61%
기압 1013 hPa
시정: 16.1km

METAR: KPEQ 300955Z AUTO 10009KT 10SM 24/16 A2991 RMK AO2 T02350163

시각: 05:35 (10:35 UTC)

예보

예보는 5 시간 15분 전, 05:20시(UTC)에 발표되었습니다.
예보 대상 시간: 30일 06시부터 31일 06시까지 (UTC)
10kt
시정: 10km
고도 25000ft 상공 구름 조금
30일 1600시부터 (UTC)
남서9kt
시정: 10km
고도 25000ft 상공 구름 조금

TAF: KPEQ 300520Z 3006/3106 10010KT P6SM FEW250 FM301600 22009KT P6SM FEW250

4,000개 이상의 공항 관측 자료 및 예보 (METAR 및 TAF 보고).

지도상에서 검색 가능한 기상관측소가 노란 점과 빨간 점으로 표시되어 있습니다.

기상관측소 명을 보려면 표시 위로 마우스를 이동하세요.

날씨 관측과 예보를 보려면 클릭하세요.

지도 변경 : 확대하려면 엑스 표시가 있는 녹색 버튼, 축소하려면 빼기 표시가 있는 녹색 버튼, 다음 페이지의 지도를 보려면 녹색 화살표를 클릭하세요.


METAR-TAF: